Time;durP1;ratioP1;P1;durP2;ratioP2;P2;SDS_P1;SDS_P2;PMS_P1;PMS_P2;Temp;Humidity;BMP_temperature;BMP_pressure;BME280_temperature;BME280_humidity;BME280_pressure;Samples;Min_cycle;Max_cycle;Signal;HPM_P1;HPM_P2
2023/08/14 00:02:22;;;;;;;9.17;8.77;;;22.20;55.70;;;;;;6216836;23;20176;-75
2023/08/14 00:04:48;;;;;;;10.53;9.80;;;22.20;55.50;;;;;;6190459;23;20160;-73
2023/08/14 00:07:14;;;;;;;9.67;9.07;;;22.20;55.30;;;;;;6215977;23;20375;-75
2023/08/14 00:09:39;;;;;;;10.60;9.90;;;22.20;55.30;;;;;;6215042;23;20484;-75
2023/08/14 00:12:05;;;;;;;10.37;9.67;;;22.20;55.30;;;;;;6215086;23;20252;-75
2023/08/14 00:14:30;;;;;;;10.57;9.97;;;22.20;55.30;;;;;;6188614;23;20766;-75
2023/08/14 00:16:56;;;;;;;10.03;9.43;;;22.20;55.30;;;;;;6215264;23;20195;-75
2023/08/14 00:19:22;;;;;;;9.63;8.73;;;22.20;55.40;;;;;;6215003;23;20596;-74
2023/08/14 00:21:47;;;;;;;9.73;9.03;;;22.20;55.60;;;;;;6215058;23;20175;-75
2023/08/14 00:24:13;;;;;;;10.13;9.27;;;22.20;55.90;;;;;;6215146;23;20227;-74
2023/08/14 00:26:38;;;;;;;9.93;9.23;;;22.20;56.00;;;;;;6215155;23;20152;-74
2023/08/14 00:29:04;;;;;;;10.60;9.90;;;22.20;56.10;;;;;;6214949;23;20154;-75
2023/08/14 00:31:29;;;;;;;10.13;9.43;;;22.20;56.30;;;;;;6215096;23;20183;-74
2023/08/14 00:33:55;;;;;;;10.07;9.50;;;22.20;56.20;;;;;;6215182;23;20158;-74
2023/08/14 00:36:21;;;;;;;9.93;9.23;;;22.20;56.20;;;;;;6215188;23;20148;-75
2023/08/14 00:38:46;;;;;;;9.87;9.23;;;22.20;56.40;;;;;;6214912;23;20183;-74
2023/08/14 00:41:12;;;;;;;9.30;8.70;;;22.20;56.40;;;;;;6188466;23;20206;-74
2023/08/14 00:43:37;;;;;;;9.53;8.77;;;22.20;56.50;;;;;;6215329;23;20527;-74
2023/08/14 00:46:03;;;;;;;9.87;9.20;;;22.20;56.50;;;;;;6215015;23;20227;-75
2023/08/14 00:48:29;;;;;;;9.03;8.53;;;22.20;56.50;;;;;;6214770;23;20180;-75
2023/08/14 00:50:55;;;;;;;10.07;9.47;;;22.20;56.40;;;;;;6214810;23;20447;-75
2023/08/14 00:53:25;;;;;;;9.87;9.17;;;22.20;56.50;;;;;;6215001;23;20922;-74
2023/08/14 00:55:51;;;;;;;9.57;8.97;;;22.20;56.50;;;;;;6214867;23;20666;-75
2023/08/14 00:58:16;;;;;;;10.27;9.53;;;22.20;56.50;;;;;;6214743;23;20371;-74
2023/08/14 01:00:43;;;;;;;9.70;9.10;;;22.20;56.90;;;;;;6214914;23;20349;-75
2023/08/14 01:03:10;;;;;;;9.77;9.17;;;22.20;56.70;;;;;;6214992;23;20589;-75
2023/08/14 01:05:35;;;;;;;9.60;9.00;;;22.20;56.90;;;;;;6214896;23;20402;-74
2023/08/14 01:08:01;;;;;;;10.13;9.60;;;22.20;56.80;;;;;;6214621;23;20372;-75
2023/08/14 01:10:48;;;;;;;10.30;9.30;;;22.20;56.70;;;;;;6214726;23;20174;-74
2023/08/14 01:13:39;;;;;;;10.00;9.20;;;22.20;56.50;;;;;;6214978;23;20572;-75
2023/08/14 01:16:10;;;;;;;9.37;8.87;;;22.20;56.00;;;;;;6202597;23;20468;-74
2023/08/14 01:18:38;;;;;;;9.53;8.83;;;22.20;55.70;;;;;;6214543;23;20406;-75
2023/08/14 01:21:16;;;;;;;8.33;7.93;;;22.20;55.40;;;;;;6188015;23;20399;-74
2023/08/14 01:24:03;;;;;;;10.10;9.30;;;22.20;55.30;;;;;;6214727;23;20954;-76
2023/08/14 01:26:30;;;;;;;9.77;9.07;;;22.20;55.50;;;;;;6215016;23;20439;-76
2023/08/14 01:28:56;;;;;;;9.30;8.70;;;22.20;55.70;;;;;;6214521;23;20836;-75
2023/08/14 01:31:21;;;;;;;9.50;9.00;;;22.20;55.90;;;;;;6214436;23;20521;-74
2023/08/14 01:33:47;;;;;;;9.20;8.70;;;22.20;56.20;;;;;;6214756;23;20406;-75
2023/08/14 01:36:26;;;;;;;9.80;9.10;;;22.20;56.20;;;;;;6214726;23;20648;-76
2023/08/14 01:39:08;;;;;;;10.10;9.60;;;22.10;55.70;;;;;;6214548;23;20171;-75
2023/08/14 01:41:41;;;;;;;10.83;9.70;;;22.10;55.90;;;;;;6214590;23;20859;-75
2023/08/14 01:44:10;;;;;;;9.40;8.90;;;22.10;56.80;;;;;;6214511;23;20446;-75
2023/08/14 01:46:38;;;;;;;9.13;8.60;;;22.20;54.90;;;;;;6214648;23;20850;-75
2023/08/14 01:49:04;;;;;;;10.17;9.23;;;22.20;55.00;;;;;;6214136;23;20403;-75
2023/08/14 01:51:31;;;;;;;9.33;8.50;;;22.30;55.90;;;;;;6188131;23;20456;-76
2023/08/14 01:53:57;;;;;;;9.23;8.63;;;22.30;55.30;;;;;;6214454;23;20375;-75
2023/08/14 01:56:23;;;;;;;8.70;8.20;;;22.30;55.70;;;;;;6187756;23;20383;-75
2023/08/14 01:58:48;;;;;;;9.50;8.90;;;22.30;55.40;;;;;;6187681;23;20387;-76
2023/08/14 02:01:14;;;;;;;9.10;8.50;;;22.30;55.50;;;;;;6214305;23;20256;-75
2023/08/14 02:03:39;;;;;;;9.50;8.87;;;22.30;56.00;;;;;;6214425;23;20148;-75
2023/08/14 02:06:05;;;;;;;8.67;8.17;;;22.30;56.20;;;;;;6214329;23;20148;-75
2023/08/14 02:08:30;;;;;;;8.60;7.97;;;22.30;56.50;;;;;;6214242;23;20175;-76
2023/08/14 02:10:55;;;;;;;8.00;7.60;;;22.30;56.50;;;;;;6187509;23;20674;-75
2023/08/14 02:13:21;;;;;;;8.80;8.03;;;22.30;55.70;;;;;;6214445;23;20156;-74
2023/08/14 02:15:47;;;;;;;8.00;7.50;;;22.20;54.50;;;;;;6214778;23;20317;-75
2023/08/14 02:18:13;;;;;;;8.40;7.77;;;22.20;54.20;;;;;;6214545;23;20151;-74
2023/08/14 02:20:46;;;;;;;7.80;7.30;;;22.20;55.70;;;;;;6214483;23;20144;-76
2023/08/14 02:23:12;;;;;;;7.60;7.17;;;22.20;56.40;;;;;;6214869;23;20403;-74
2023/08/14 02:25:41;;;;;;;8.37;7.87;;;22.20;56.50;;;;;;6214905;23;20379;-74
2023/08/14 02:28:07;;;;;;;7.60;7.20;;;22.10;56.50;;;;;;6214252;23;20152;-75
2023/08/14 02:30:41;;;;;;;7.63;7.13;;;22.20;56.80;;;;;;6213865;23;20418;-75
2023/08/14 02:33:06;;;;;;;7.97;7.57;;;22.10;57.20;;;;;;6214786;23;20492;-75
2023/08/14 02:35:32;;;;;;;8.53;7.97;;;22.10;57.90;;;;;;6214681;23;20375;-76
2023/08/14 02:37:58;;;;;;;8.03;7.43;;;22.10;58.70;;;;;;6187658;23;20160;-76
2023/08/14 02:40:23;;;;;;;8.87;8.10;;;22.10;59.10;;;;;;6214343;23;20335;-75
2023/08/14 02:42:49;;;;;;;7.20;6.80;;;22.10;60.50;;;;;;6214256;23;20504;-74
2023/08/14 02:45:14;;;;;;;8.20;7.73;;;22.10;59.90;;;;;;6214444;23;20596;-75
2023/08/14 02:47:40;;;;;;;7.63;7.23;;;22.00;60.70;;;;;;6214594;23;20156;-75
2023/08/14 02:50:06;;;;;;;7.10;6.70;;;21.90;60.00;;;;;;6214123;23;20604;-75
2023/08/14 02:52:31;;;;;;;8.00;7.47;;;21.90;60.70;;;;;;6188237;23;20222;-75
2023/08/14 02:54:57;;;;;;;7.73;7.00;;;21.80;62.00;;;;;;6214731;23;20736;-75
2023/08/14 02:57:22;;;;;;;6.93;6.43;;;21.70;60.80;;;;;;6214602;23;20155;-74
2023/08/14 02:59:48;;;;;;;7.37;6.97;;;21.70;59.80;;;;;;6214812;23;20398;-74
2023/08/14 03:02:13;;;;;;;6.67;6.37;;;21.70;59.70;;;;;;6217996;23;20164;-75
2023/08/14 03:04:39;;;;;;;6.53;6.13;;;21.60;58.50;;;;;;6216370;23;20485;-75
2023/08/14 03:07:04;;;;;;;6.73;6.33;;;21.40;59.30;;;;;;6216522;23;20493;-75
2023/08/14 03:09:30;;;;;;;7.13;6.60;;;21.30;61.50;;;;;;6229568;23;20140;-75
2023/08/14 03:11:56;;;;;;;7.53;7.07;;;21.20;61.40;;;;;;6219963;23;20188;-75
2023/08/14 03:14:21;;;;;;;9.70;6.90;;;21.30;61.60;;;;;;6214386;23;20156;-75
2023/08/14 03:16:47;;;;;;;7.10;6.70;;;21.20;61.40;;;;;;6214555;23;20219;-75
2023/08/14 03:19:12;;;;;;;6.97;6.57;;;21.10;61.30;;;;;;6213908;23;20172;-75
2023/08/14 03:21:38;;;;;;;7.13;6.73;;;21.10;61.80;;;;;;6187456;23;20176;-76
2023/08/14 03:24:03;;;;;;;7.17;6.67;;;21.00;61.20;;;;;;6214609;23;20180;-76
2023/08/14 03:26:29;;;;;;;6.60;6.07;;;21.00;61.60;;;;;;6215062;23;20220;-75
2023/08/14 03:28:55;;;;;;;6.77;6.37;;;21.10;61.90;;;;;;6214228;23;20155;-75
2023/08/14 03:31:20;;;;;;;7.07;6.67;;;21.20;62.20;;;;;;6214349;23;20188;-75
2023/08/14 03:33:46;;;;;;;6.03;5.70;;;21.20;61.40;;;;;;6214406;23;20168;-75
2023/08/14 03:36:11;;;;;;;6.93;6.30;;;21.20;61.40;;;;;;6214273;23;20546;-75
2023/08/14 03:38:37;;;;;;;7.13;6.17;;;21.20;61.30;;;;;;6214086;23;20152;-75
2023/08/14 03:41:04;;;;;;;7.53;7.03;;;21.30;61.90;;;;;;6214385;23;20251;-76
2023/08/14 03:43:29;;;;;;;7.03;6.63;;;21.20;61.70;;;;;;6215224;23;20156;-77
2023/08/14 03:45:55;;;;;;;7.60;7.17;;;21.20;61.40;;;;;;6189151;23;20409;-76
2023/08/14 03:48:20;;;;;;;7.33;6.83;;;21.10;60.50;;;;;;6189177;23;20241;-76
2023/08/14 03:50:47;;;;;;;7.13;6.73;;;21.00;61.20;;;;;;6190048;23;20258;-77
2023/08/14 03:53:12;;;;;;;7.13;6.73;;;20.90;61.40;;;;;;6216344;23;20148;-77
2023/08/14 03:55:38;;;;;;;7.93;7.43;;;20.90;61.50;;;;;;6216073;23;20725;-77
2023/08/14 03:58:03;;;;;;;7.53;7.03;;;20.90;61.80;;;;;;6189637;23;20152;-75
2023/08/14 04:00:29;;;;;;;7.73;7.23;;;20.90;62.30;;;;;;6215983;23;20612;-75
2023/08/14 04:02:54;;;;;;;12.17;7.00;;;20.90;62.10;;;;;;6216221;23;20227;-75
2023/08/14 04:05:20;;;;;;;7.33;6.80;;;20.90;62.60;;;;;;6216132;23;20671;-75
2023/08/14 04:07:45;;;;;;;6.33;5.93;;;21.00;63.60;;;;;;6215955;23;20666;-74
2023/08/14 04:10:11;;;;;;;6.70;6.30;;;20.90;62.60;;;;;;6215592;23;20213;-74
2023/08/14 04:12:37;;;;;;;7.13;6.73;;;21.00;62.70;;;;;;6216154;23;20164;-74
2023/08/14 04:15:16;;;;;;;7.50;7.00;;;20.90;61.40;;;;;;6215908;23;20395;-76
2023/08/14 04:17:43;;;;;;;7.00;6.70;;;20.90;60.00;;;;;;6189108;23;20441;-75
2023/08/14 04:20:11;;;;;;;7.20;6.80;;;20.90;60.50;;;;;;6215324;23;20404;-76
2023/08/14 04:22:37;;;;;;;7.40;7.00;;;21.00;61.10;;;;;;6188996;23;20410;-76
2023/08/14 04:25:02;;;;;;;6.50;6.10;;;21.00;61.20;;;;;;6215745;23;20376;-75
2023/08/14 04:27:28;;;;;;;6.50;6.10;;;21.00;61.10;;;;;;6215380;23;20198;-76
2023/08/14 04:29:53;;;;;;;6.97;6.57;;;21.10;60.20;;;;;;6215249;23;20151;-75
2023/08/14 04:32:19;;;;;;;7.00;6.60;;;21.10;59.60;;;;;;6215423;23;20168;-76
2023/08/14 04:34:44;;;;;;;7.07;6.77;;;21.20;59.30;;;;;;6215873;23;20144;-76
2023/08/14 04:37:10;;;;;;;6.80;6.30;;;21.20;58.60;;;;;;6215658;23;20601;-75
2023/08/14 04:39:35;;;;;;;6.90;6.57;;;21.10;58.30;;;;;;6215560;23;20148;-75
2023/08/14 04:42:01;;;;;;;7.47;6.97;;;21.10;57.90;;;;;;6188834;23;20199;-76
2023/08/14 04:44:26;;;;;;;6.83;6.43;;;21.10;57.40;;;;;;6215972;23;20188;-76
2023/08/14 04:46:52;;;;;;;7.90;7.50;;;21.10;57.20;;;;;;6215382;23;20600;-74
2023/08/14 04:49:17;;;;;;;8.00;7.50;;;21.10;56.90;;;;;;6188681;23;20164;-77
2023/08/14 04:51:43;;;;;;;8.27;7.73;;;21.10;57.20;;;;;;6215962;23;20183;-78
2023/08/14 04:54:08;;;;;;;7.70;7.23;;;21.10;57.80;;;;;;6215672;23;20616;-75
2023/08/14 04:56:34;;;;;;;8.40;7.67;;;21.10;57.60;;;;;;6215419;23;20133;-75
2023/08/14 04:59:00;;;;;;;7.93;7.53;;;21.10;56.90;;;;;;6213342;23;20156;-75
2023/08/14 05:01:26;;;;;;;7.90;7.50;;;21.10;57.40;;;;;;6213253;23;20775;-75
2023/08/14 05:03:51;;;;;;;8.67;8.03;;;21.10;57.30;;;;;;6214091;23;20163;-75
2023/08/14 05:06:17;;;;;;;8.20;7.73;;;21.10;57.70;;;;;;6214265;23;20159;-75
2023/08/14 05:08:42;;;;;;;7.93;7.43;;;21.20;57.10;;;;;;6214930;23;20197;-75
2023/08/14 05:11:08;;;;;;;8.27;7.87;;;21.20;57.00;;;;;;6215179;23;20180;-75
2023/08/14 05:13:33;;;;;;;7.50;7.00;;;21.20;56.90;;;;;;6189072;23;20155;-75
2023/08/14 05:15:59;;;;;;;7.00;6.60;;;21.20;56.90;;;;;;6215653;23;20601;-75
2023/08/14 05:18:24;;;;;;;7.70;7.40;;;21.20;57.10;;;;;;6215403;23;20210;-75
2023/08/14 05:20:51;;;;;;;8.30;7.90;;;21.20;56.90;;;;;;6215684;23;20644;-75
2023/08/14 05:23:17;;;;;;;8.77;8.23;;;21.20;56.50;;;;;;6216179;23;20493;-75
2023/08/14 05:25:44;;;;;;;8.90;8.30;;;21.20;56.80;;;;;;6216072;23;20414;-75
2023/08/14 05:28:10;;;;;;;8.53;8.13;;;21.20;57.10;;;;;;6215614;23;20227;-74
2023/08/14 05:30:36;;;;;;;8.23;7.80;;;21.30;57.20;;;;;;6188653;23;20431;-76
2023/08/14 05:33:03;;;;;;;7.90;7.30;;;21.30;57.70;;;;;;6215758;23;20835;-76
2023/08/14 05:35:29;;;;;;;7.67;7.37;;;21.20;56.70;;;;;;6215639;23;20398;-76
2023/08/14 05:37:56;;;;;;;7.30;7.00;;;21.20;54.80;;;;;;6189044;23;20859;-76
2023/08/14 05:40:23;;;;;;;7.17;6.87;;;21.20;55.10;;;;;;6215272;23;20375;-76
2023/08/14 05:43:10;;;;;;;8.33;7.77;;;21.30;55.40;;;;;;6187775;23;20734;-76
2023/08/14 05:45:46;;;;;;;7.30;7.00;;;21.30;55.40;;;;;;6188474;23;20758;-76
2023/08/14 05:48:13;;;;;;;7.63;7.23;;;21.30;56.10;;;;;;6215188;23;20704;-76
2023/08/14 05:50:39;;;;;;;8.20;7.90;;;21.30;54.80;;;;;;6213904;23;20720;-76
2023/08/14 05:53:06;;;;;;;9.43;8.77;;;21.30;54.70;;;;;;6187309;23;20383;-76
2023/08/14 05:55:33;;;;;;;7.97;7.57;;;21.30;54.30;;;;;;6213674;23;20399;-76
2023/08/14 05:58:02;;;;;;;8.10;7.60;;;21.30;54.10;;;;;;6214653;23;20378;-76
2023/08/14 06:00:31;;;;;;;7.90;7.50;;;21.30;53.10;;;;;;6186362;23;20735;-76
2023/08/14 06:03:04;;;;;;;8.80;8.40;;;21.20;52.00;;;;;;6214798;23;20462;-77
2023/08/14 06:05:41;;;;;;;8.60;8.00;;;21.20;53.00;;;;;;6214542;23;20379;-75
2023/08/14 06:08:07;;;;;;;8.67;7.97;;;21.20;52.50;;;;;;6213259;23;20870;-74
2023/08/14 06:10:32;;;;;;;8.40;7.97;;;21.30;52.90;;;;;;6214714;23;20415;-75
2023/08/14 06:12:58;;;;;;;8.80;8.20;;;21.30;53.60;;;;;;6215626;23;20163;-75
2023/08/14 06:15:24;;;;;;;8.33;7.93;;;21.40;54.30;;;;;;6188490;23;20592;-75
2023/08/14 06:17:50;;;;;;;8.37;8.00;;;21.40;53.60;;;;;;6188594;23;20160;-75
2023/08/14 06:20:16;;;;;;;9.07;8.67;;;21.40;52.70;;;;;;6215215;23;20375;-76
2023/08/14 06:22:43;;;;;;;10.07;9.50;;;21.50;52.80;;;;;;6188492;23;20503;-75
2023/08/14 06:25:10;;;;;;;8.10;7.80;;;21.40;51.70;;;;;;6189496;23;20152;-75
2023/08/14 06:27:35;;;;;;;8.70;8.20;;;21.30;51.50;;;;;;6213829;23;20430;-75
2023/08/14 06:30:01;;;;;;;8.60;8.10;;;21.40;53.10;;;;;;6213404;23;20376;-75
2023/08/14 06:32:27;;;;;;;8.80;8.37;;;21.40;53.60;;;;;;6214068;23;20423;-75
2023/08/14 06:34:53;;;;;;;9.23;8.80;;;21.50;54.20;;;;;;6213657;23;20371;-75
2023/08/14 06:37:18;;;;;;;8.90;8.50;;;21.50;54.40;;;;;;6213757;23;20170;-75
2023/08/14 06:39:43;;;;;;;9.37;8.97;;;21.50;53.90;;;;;;6212069;23;20588;-75
2023/08/14 06:42:09;;;;;;;10.00;9.40;;;21.50;53.40;;;;;;6211435;23;20171;-76
2023/08/14 06:44:35;;;;;;;8.97;8.57;;;21.50;53.80;;;;;;6210945;23;20156;-75
2023/08/14 06:47:01;;;;;;;10.50;9.70;;;21.50;53.40;;;;;;6213403;23;20636;-75
2023/08/14 06:49:26;;;;;;;10.03;9.27;;;21.50;52.50;;;;;;6214200;23;20175;-75
2023/08/14 06:51:52;;;;;;;10.37;9.57;;;21.50;51.80;;;;;;6187456;23;20488;-75
2023/08/14 06:54:18;;;;;;;9.17;8.63;;;21.60;51.80;;;;;;6190745;23;20395;-76
2023/08/14 06:56:43;;;;;;;8.60;8.30;;;21.60;51.00;;;;;;6216101;23;20151;-74
2023/08/14 06:59:09;;;;;;;9.60;9.23;;;21.60;50.80;;;;;;6214743;23;20171;-75
2023/08/14 07:01:34;;;;;;;10.10;9.60;;;21.60;51.20;;;;;;6215145;23;20195;-76
2023/08/14 07:04:01;;;;;;;9.17;8.73;;;21.70;51.90;;;;;;6215583;23;20154;-75
2023/08/14 07:06:26;;;;;;;8.40;8.00;;;21.70;51.90;;;;;;6214929;23;20199;-74
2023/08/14 07:08:52;;;;;;;9.60;9.10;;;21.70;52.00;;;;;;6215804;23;20739;-75
2023/08/14 07:11:17;;;;;;;8.70;8.30;;;21.80;52.90;;;;;;6213056;23;20548;-75
2023/08/14 07:13:43;;;;;;;8.80;8.40;;;21.80;52.60;;;;;;6213744;23;20160;-75
2023/08/14 07:16:09;;;;;;;8.83;8.33;;;21.90;53.40;;;;;;6214481;23;20148;-77
2023/08/14 07:18:34;;;;;;;9.70;9.20;;;21.90;52.10;;;;;;6216333;23;20175;-75
2023/08/14 07:21:00;;;;;;;9.70;9.20;;;21.90;52.10;;;;;;6216825;23;20182;-75
2023/08/14 07:23:25;;;;;;;8.87;8.37;;;22.00;52.20;;;;;;6217162;23;20186;-75
2023/08/14 07:25:50;;;;;;;9.00;8.60;;;22.00;52.90;;;;;;6216633;23;20231;-76
2023/08/14 07:28:17;;;;;;;9.17;8.60;;;22.10;53.30;;;;;;6215718;23;20235;-77
2023/08/14 07:30:43;;;;;;;9.30;8.90;;;22.00;53.00;;;;;;6216864;23;20222;-75
2023/08/14 07:33:10;;;;;;;9.73;9.33;;;22.10;52.20;;;;;;6217844;23;20371;-76
2023/08/14 07:35:37;;;;;;;9.53;9.03;;;22.10;52.30;;;;;;6218766;23;20478;-75
2023/08/14 07:38:03;;;;;;;9.00;8.60;;;22.20;52.40;;;;;;6218458;23;20363;-74
2023/08/14 07:40:29;;;;;;;9.80;9.30;;;22.20;52.40;;;;;;6217360;23;20382;-75
2023/08/14 07:42:55;;;;;;;10.73;9.93;;;22.30;51.00;;;;;;6218194;23;20390;-75
2023/08/14 07:45:20;;;;;;;9.77;9.23;;;22.40;50.90;;;;;;6216616;23;20152;-76
2023/08/14 07:47:46;;;;;;;10.27;9.77;;;22.40;52.00;;;;;;6216624;23;20424;-73
2023/08/14 07:50:12;;;;;;;10.37;9.87;;;22.40;51.30;;;;;;6216100;23;20195;-74
2023/08/14 07:52:37;;;;;;;10.20;9.67;;;22.60;47.20;;;;;;6216362;23;20574;-75
2023/08/14 07:55:03;;;;;;;10.40;10.00;;;22.70;46.90;;;;;;6215891;23;20488;-75
2023/08/14 07:57:29;;;;;;;10.27;9.70;;;22.70;48.10;;;;;;6190026;23;20148;-74
2023/08/14 07:59:55;;;;;;;10.23;9.33;;;22.80;49.20;;;;;;6190325;23;20383;-75
2023/08/14 08:02:21;;;;;;;9.90;9.50;;;22.80;48.50;;;;;;6216040;23;20402;-76
2023/08/14 08:04:46;;;;;;;12.43;11.43;;;23.00;47.20;;;;;;6216520;23;20148;-75
2023/08/14 08:07:13;;;;;;;10.23;9.63;;;23.10;46.50;;;;;;6215838;23;20152;-74
2023/08/14 08:09:38;;;;;;;10.17;9.77;;;23.10;46.50;;;;;;6190165;23;20387;-75
2023/08/14 08:12:04;;;;;;;11.20;10.60;;;23.10;47.60;;;;;;6216348;23;20427;-75
2023/08/14 08:14:30;;;;;;;10.50;9.90;;;23.10;48.80;;;;;;6216552;23;20183;-75
2023/08/14 08:16:55;;;;;;;10.07;9.67;;;23.00;49.00;;;;;;6216243;23;20554;-76
2023/08/14 08:19:21;;;;;;;9.53;9.13;;;23.10;48.30;;;;;;6189268;23;20188;-76
2023/08/14 08:21:47;;;;;;;10.27;9.77;;;23.10;48.90;;;;;;6216398;23;20168;-76
2023/08/14 08:24:13;;;;;;;10.20;9.80;;;23.20;48.90;;;;;;6216131;23;20202;-76
2023/08/14 08:26:38;;;;;;;12.03;11.20;;;23.20;48.00;;;;;;6215872;23;20371;-76
2023/08/14 08:29:05;;;;;;;11.13;10.63;;;23.20;47.70;;;;;;6215041;23;20201;-76
2023/08/14 08:31:31;;;;;;;11.37;10.87;;;23.30;46.90;;;;;;6215572;23;20188;-75
2023/08/14 08:33:57;;;;;;;11.00;10.50;;;23.50;43.40;;;;;;6215690;23;20374;-75
2023/08/14 08:36:22;;;;;;;10.43;10.00;;;23.50;44.10;;;;;;6215658;23;20708;-76
2023/08/14 08:38:48;;;;;;;11.07;10.40;;;23.70;43.60;;;;;;6215252;23;20621;-76
2023/08/14 08:41:34;;;;;;;10.80;10.20;;;23.80;41.70;;;;;;6215242;23;20194;-75
2023/08/14 08:44:25;;;;;;;11.03;10.47;;;23.80;40.60;;;;;;6215953;23;20148;-75
2023/08/14 08:46:55;;;;;;;11.20;10.80;;;24.10;38.00;;;;;;6215679;23;20442;-76
2023/08/14 08:49:21;;;;;;;10.80;10.20;;;24.20;38.00;;;;;;6215313;23;20603;-75
2023/08/14 08:51:47;;;;;;;10.47;10.07;;;24.40;36.20;;;;;;6215313;23;20474;-76
2023/08/14 08:54:16;;;;;;;11.50;10.90;;;24.50;37.00;;;;;;6215543;23;20159;-76
2023/08/14 08:56:42;;;;;;;11.10;10.50;;;24.50;37.70;;;;;;6215928;23;20458;-76
2023/08/14 08:59:11;;;;;;;11.67;11.17;;;24.50;37.30;;;;;;6215861;23;20372;-76
2023/08/14 09:01:38;;;;;;;11.70;11.20;;;24.60;35.90;;;;;;6189289;23;20179;-75
2023/08/14 09:04:04;;;;;;;11.23;10.83;;;24.70;35.60;;;;;;6189324;23;20771;-76
2023/08/14 09:06:30;;;;;;;11.57;11.07;;;24.90;34.20;;;;;;6189103;23;20767;-76
2023/08/14 09:08:56;;;;;;;11.53;11.00;;;24.90;35.80;;;;;;6216089;23;20375;-76
2023/08/14 09:11:22;;;;;;;10.13;9.73;;;24.90;35.60;;;;;;6215268;23;20184;-76
2023/08/14 09:13:48;;;;;;;11.17;10.67;;;24.90;36.50;;;;;;6188912;23;20721;-77
2023/08/14 09:16:15;;;;;;;11.50;11.00;;;24.80;37.00;;;;;;6215226;23;20307;-76
2023/08/14 09:18:42;;;;;;;12.07;11.57;;;24.80;36.80;;;;;;6188496;23;20602;-75
2023/08/14 09:21:08;;;;;;;12.43;11.90;;;24.80;37.00;;;;;;6214982;23;20466;-77
2023/08/14 09:23:34;;;;;;;13.73;13.13;;;24.80;36.30;;;;;;6214682;23;20410;-76
2023/08/14 09:26:00;;;;;;;12.17;11.37;;;24.80;36.70;;;;;;6215465;23;20183;-77
2023/08/14 09:28:26;;;;;;;11.63;11.03;;;24.90;37.10;;;;;;6214810;23;20684;-77
2023/08/14 09:30:52;;;;;;;11.37;10.87;;;24.90;35.90;;;;;;6214770;23;20187;-76
2023/08/14 09:33:17;;;;;;;12.10;11.60;;;25.20;35.70;;;;;;6215458;23;20934;-75
2023/08/14 09:35:52;;;;;;;11.07;10.67;;;25.40;34.10;;;;;;6215494;23;20646;-76
2023/08/14 09:38:17;;;;;;;10.57;10.17;;;25.90;32.20;;;;;;6215085;23;20503;-77
